»·PEaware :: N602CN KSAN-KPSP

N602CN :: KSAN-KPSP

FLIGHT INFORMATION

Flight Status: Arrived
Operator: Privately registered:
United States
More flights under this callsign
Pilot: Henderson P. (1210)
Aircraft: BEECH AIRCRAFT SUPER KING AIR COMMUTER
(BE20)
More flights by this aircraft type
Origin: KSAN San Diego Intl-Lindbergh
United States
Destination: KPSP Palm Springs Intl
United States
More flights between these airports :: More routes between these airports
Route: +BRD7 JLI V208 TRM
File this flight plan on PilotEdge
Remarks:
Altitude:
(Current/Filed)
17,000ft
Speed:
(Current/Filed)
282kts
Departed: 03-Nov-19 04:07 PM
Arrived: 03-Nov-19 04:43 PM
Distance/Time
Traveled:
74nm/0:36
Distance/Time
To Go:
Arrived

Flight Plot

Page will automatically refresh every two minutes.

Flight plan parsing failed; only flown route is shown


Map Options




Map Legend


Flown Route
Filed Route
Departure Airport
Arrival Airport
Navaid (VOR, NDB)
Fix

Horizontal Profiles

Position Reports

Time Latitude Longitude Heading Altitude Ground
Speed
03-Nov-19 15:36 32.733514 -117.178854 15 19ft 0kts
03-Nov-19 15:37 32.733514 -117.178854 15 19ft 0kts
03-Nov-19 15:38 32.733514 -117.178854 15 19ft 0kts
03-Nov-19 15:39 32.733514 -117.178854 15 19ft 0kts
03-Nov-19 15:40 32.733514 -117.178854 15 19ft 0kts
03-Nov-19 15:41 32.733514 -117.178854 15 19ft 0kts
03-Nov-19 15:42 32.733514 -117.178854 15 19ft 0kts
03-Nov-19 15:43 32.733514 -117.178854 15 19ft 0kts
03-Nov-19 15:43 32.733514 -117.178854 15 19ft 0kts
03-Nov-19 15:45 32.733514 -117.178854 15 19ft 0kts
03-Nov-19 15:46 32.733514 -117.178854 15 19ft 0kts
03-Nov-19 15:46 32.733514 -117.178854 16 19ft 0kts
03-Nov-19 15:48 32.733514 -117.178854 16 19ft 0kts
03-Nov-19 15:49 32.733514 -117.178854 16 19ft 0kts
03-Nov-19 15:49 32.733514 -117.178854 16 19ft 0kts
03-Nov-19 15:50 32.733515 -117.178854 16 19ft 0kts
03-Nov-19 15:52 32.733515 -117.178854 16 19ft 0kts
03-Nov-19 15:52 32.733515 -117.178854 16 19ft 0kts
03-Nov-19 15:53 32.733515 -117.178854 16 19ft 0kts
03-Nov-19 15:55 32.733515 -117.178854 16 19ft 0kts
03-Nov-19 15:55 32.733515 -117.178854 16 19ft 0kts
03-Nov-19 15:56 32.733515 -117.178854 16 19ft 0kts
03-Nov-19 15:57 32.733515 -117.178854 16 19ft 0kts
03-Nov-19 15:58 32.733515 -117.178854 16 19ft 0kts
03-Nov-19 15:59 32.733515 -117.178854 16 19ft 0kts
03-Nov-19 16:00 32.733515 -117.178854 17 19ft 0kts
03-Nov-19 16:01 32.733516 -117.178854 17 19ft 0kts
03-Nov-19 16:02 32.733802 -117.179370 259 19ft 8kts
03-Nov-19 16:03 32.733613 -117.179514 193 19ft 3kts
03-Nov-19 16:04 32.731316 -117.175890 126 19ft 14kts
03-Nov-19 16:05 32.730706 -117.175377 177 19ft 4kts
03-Nov-19 16:06 32.736874 -117.203387 287 578ft 157kts
03-Nov-19 16:07 32.750946 -117.253625 288 2879ft 166kts
03-Nov-19 16:08 32.764047 -117.298899 288 4678ft 175kts
03-Nov-19 16:09 32.739257 -117.330914 152 6844ft 180kts
03-Nov-19 16:10 32.701534 -117.289887 134 8864ft 187kts
03-Nov-19 16:11 32.665054 -117.246349 133 11256ft 173kts
03-Nov-19 16:12 32.630757 -117.208196 136 13739ft 171kts
03-Nov-19 16:13 32.617325 -117.149964 94 15022ft 225kts
03-Nov-19 16:14 32.613647 -117.065919 92 14999ft 273kts
03-Nov-19 16:15 32.640744 -116.986644 36 15008ft 282kts
03-Nov-19 16:16 32.704986 -116.936486 32 15917ft 257kts
03-Nov-19 16:17 32.763459 -116.891317 33 17001ft 263kts
03-Nov-19 16:18 32.827239 -116.840293 33 16986ft 285kts
03-Nov-19 16:19 32.893932 -116.786605 33 16992ft 292kts
03-Nov-19 16:20 32.961836 -116.731619 34 16996ft 295kts
03-Nov-19 16:21 33.029510 -116.676573 34 16998ft 294kts
03-Nov-19 16:22 33.097322 -116.621453 34 16996ft 295kts
03-Nov-19 16:23 33.164862 -116.565591 35 16990ft 294kts
03-Nov-19 16:24 33.230819 -116.508218 36 16981ft 293kts
03-Nov-19 16:25 33.296789 -116.450650 36 16966ft 293kts
03-Nov-19 16:26 33.362483 -116.393241 35 16975ft 288kts
03-Nov-19 16:27 33.426256 -116.337758 36 15324ft 283kts
03-Nov-19 16:28 33.483057 -116.287914 36 13649ft 277kts
03-Nov-19 16:29 33.543899 -116.234402 36 12021ft 264kts
03-Nov-19 16:30 33.603618 -116.184303 21 10340ft 263kts
03-Nov-19 16:31 33.664438 -116.217850 306 9017ft 250kts
03-Nov-19 16:32 33.708637 -116.272700 329 8780ft 207kts
03-Nov-19 16:33 33.758503 -116.305253 331 6501ft 202kts
03-Nov-19 16:34 33.801146 -116.289365 81 4464ft 193kts
03-Nov-19 16:35 33.768474 -116.270583 234 3976ft 164kts
03-Nov-19 16:36 33.780535 -116.319580 301 3986ft 163kts
03-Nov-19 16:37 33.803834 -116.366607 301 3992ft 163kts
03-Nov-19 16:38 33.790954 -116.407112 222 3924ft 135kts
03-Nov-19 16:39 33.773606 -116.444916 264 2656ft 129kts
03-Nov-19 16:40 33.793580 -116.475731 325 1204ft 120kts
03-Nov-19 16:41 33.815919 -116.495458 325 617ft 106kts
03-Nov-19 16:42 33.830596 -116.507218 357 481ft 13kts
03-Nov-19 16:43 33.830782 -116.504789 145 481ft 16kts
03-Nov-19 16:44 33.825667 -116.500235 143 481ft 21kts
03-Nov-19 16:45 33.824617 -116.498708 53 481ft 0kts
03-Nov-19 16:46 33.824617 -116.498708 53 481ft 0kts
03-Nov-19 16:47 33.824617 -116.498708 53 481ft 0kts

Navigation Log

Ident Type
Flight plan parsing failed, navigation log unavailable